Time;durP1;ratioP1;P1;durP2;ratioP2;P2;SDS_P1;SDS_P2;PMS_P1;PMS_P2;Temp;Humidity;BMP_temperature;BMP_pressure;BME280_temperature;BME280_humidity;BME280_pressure;Samples;Min_cycle;Max_cycle;Signal;HPM_P1;HPM_P2
2021/04/15 00:01:30;;;;;;;19.17;11.70;;;;;;;6.71;90.96;99888.70;1698183;84;21295;-79
2021/04/15 00:04:36;;;;;;;18.87;12.58;;;;;;;6.70;90.92;99885.66;1708540;84;21157;-79
2021/04/15 00:07:42;;;;;;;18.60;12.75;;;;;;;6.71;91.04;99875.12;1698710;84;21831;-79
2021/04/15 00:10:51;;;;;;;17.75;12.60;;;;;;;6.73;91.21;99869.03;1708533;84;21164;-79
2021/04/15 00:13:59;;;;;;;19.30;12.82;;;;;;;6.73;91.31;99873.59;1698642;84;21205;-79
2021/04/15 00:17:07;;;;;;;22.65;13.32;;;;;;;6.75;91.36;99883.30;1708652;84;21896;-79
2021/04/15 00:20:14;;;;;;;19.48;13.03;;;;;;;6.78;91.47;99880.78;1698657;84;21283;-79
2021/04/15 00:23:19;;;;;;;25.30;14.70;;;;;;;6.75;91.63;99882.45;1708569;84;21734;-79
2021/04/15 00:26:27;;;;;;;23.38;14.03;;;;;;;6.72;91.93;99884.13;1697203;83;21169;-79
2021/04/15 00:29:33;;;;;;;22.55;14.65;;;;;;;6.68;92.30;99890.41;1708498;84;21275;-80
2021/04/15 00:32:42;;;;;;;25.15;15.78;;;;;;;6.64;92.71;99886.31;1697618;84;21188;-79
2021/04/15 00:35:50;;;;;;;29.18;16.52;;;;;;;6.65;93.11;99885.29;1708481;84;21869;-79
2021/04/15 00:38:57;;;;;;;27.27;15.23;;;;;;;6.67;93.49;99890.05;1697163;83;21196;-79
2021/04/15 00:42:02;;;;;;;31.70;17.50;;;;;;;6.70;93.75;99882.94;1708463;84;21884;-79
2021/04/15 00:45:11;;;;;;;34.83;16.30;;;;;;;6.70;93.95;99892.45;1698700;84;21296;-80
2021/04/15 00:48:47;;;;;;;35.13;19.60;;;;;;;6.72;94.12;99886.33;1708666;84;21267;-79
2021/04/15 00:51:58;;;;;;;48.42;22.55;;;;;;;6.72;94.30;99884.97;1698682;84;21280;-79
2021/04/15 00:55:14;;;;;;;44.15;22.10;;;;;;;6.71;94.57;99888.70;1708669;84;21283;-79
2021/04/15 00:58:19;;;;;;;44.98;23.38;;;;;;;6.74;94.81;99886.19;1698688;84;21204;-79
2021/04/15 01:01:25;;;;;;;50.28;23.52;;;;;;;6.76;94.99;99890.44;1708453;84;21303;-79
2021/04/15 01:04:34;;;;;;;43.10;22.90;;;;;;;6.78;95.10;99888.42;1698976;84;21316;-79
2021/04/15 01:07:40;;;;;;;50.52;22.05;;;;;;;6.83;95.13;99881.14;1706892;84;21203;-79
2021/04/15 01:10:50;;;;;;;50.05;22.20;;;;;;;6.87;95.17;99883.38;1698523;84;21727;-79
2021/04/15 01:14:22;;;;;;;57.67;23.65;;;;;;;6.90;95.14;99878.95;1707317;84;21843;-79
2021/04/15 01:17:41;;;;;;;56.30;25.27;;;;;;;6.94;95.16;99878.12;1685188;84;21279;-79
2021/04/15 01:20:59;;;;;;;49.08;22.30;;;;;;;7.01;95.29;99875.59;1708361;84;21283;-79
2021/04/15 01:24:16;;;;;;;50.10;22.82;;;;;;;7.07;95.47;99869.00;1696974;84;21252;-79
2021/04/15 01:27:55;;;;;;;42.62;19.05;;;;;;;7.12;95.62;99869.35;1707003;84;21188;-79
2021/04/15 01:31:16;;;;;;;32.53;15.80;;;;;;;7.16;95.85;99865.30;1698537;84;21271;-79
2021/04/15 01:34:34;;;;;;;30.68;15.40;;;;;;;7.21;96.37;99863.44;1707105;84;21168;-79
2021/04/15 01:38:14;;;;;;;31.27;14.13;;;;;;;7.24;96.81;99860.88;1698333;84;21370;-79
2021/04/15 01:41:37;;;;;;;21.42;11.18;;;;;;;7.27;97.14;99854.60;1708445;84;21319;-79
2021/04/15 01:45:02;;;;;;;26.73;11.45;;;;;;;7.33;97.38;99853.08;1698646;84;21805;-79
2021/04/15 01:48:21;;;;;;;17.48;10.60;;;;;;;7.36;97.61;99848.68;1708203;84;21180;-79
2021/04/15 01:51:30;;;;;;;21.73;10.30;;;;;;;7.38;97.84;99843.39;1703684;83;21631;-79
2021/04/15 01:54:49;;;;;;;23.70;10.68;;;;;;;7.41;98.05;99836.27;1716249;83;21553;-79
2021/04/15 01:58:06;;;;;;;22.82;10.90;;;;;;;7.45;98.27;99842.23;1706405;84;21220;-79
2021/04/15 02:01:16;;;;;;;24.65;10.08;;;;;;;7.46;98.49;99838.48;1716214;83;21159;-79
2021/04/15 02:04:25;;;;;;;24.23;10.58;;;;;;;7.45;98.69;99827.78;1706239;84;21315;-79
2021/04/15 02:07:32;;;;;;;18.17;10.82;;;;;;;7.48;98.83;99834.23;1716358;83;21176;-79
2021/04/15 02:10:38;;;;;;;20.85;9.78;;;;;;;7.49;99.02;99831.88;1704739;83;21754;-79
2021/04/15 02:13:45;;;;;;;23.70;9.78;;;;;;;7.50;99.11;99833.57;1714967;83;21195;-79
2021/04/15 02:16:54;;;;;;;25.92;10.48;;;;;;;7.51;99.23;99829.31;1689327;85;21287;-79
2021/04/15 02:20:04;;;;;;;20.23;10.00;;;;;;;7.52;99.35;99825.56;1714648;83;21164;-79
2021/04/15 02:23:26;;;;;;;23.27;9.85;;;;;;;7.55;99.46;99827.95;1706258;84;21316;-79
2021/04/15 02:26:38;;;;;;;26.97;9.48;;;;;;;7.56;99.59;99824.20;1716107;83;21171;-79
2021/04/15 02:29:45;;;;;;;17.95;10.20;;;;;;;7.56;99.75;99828.80;1689174;85;21286;-79
2021/04/15 02:32:56;;;;;;;20.70;9.75;;;;;;;7.57;99.95;99825.05;1714728;83;21350;-79
2021/04/15 02:36:07;;;;;;;19.17;9.03;;;;;;;7.60;100.00;99822.01;1688034;85;21867;-79
2021/04/15 02:39:20;;;;;;;32.17;8.88;;;;;;;7.63;100.00;99823.89;1695074;83;21271;-79
2021/04/15 02:42:31;;;;;;;23.73;9.85;;;;;;;7.65;100.00;99811.46;1706318;84;21821;-79
2021/04/15 02:45:44;;;;;;;21.73;9.50;;;;;;;7.67;100.00;99818.96;1716136;83;21167;-80
2021/04/15 02:48:49;;;;;;;20.65;8.70;;;;;;;7.67;100.00;99820.33;1689126;85;21327;-79
2021/04/15 02:52:12;;;;;;;19.52;8.63;;;;;;;7.69;100.00;99819.63;1711325;83;21812;-79
2021/04/15 02:55:21;;;;;;;17.12;8.95;;;;;;;7.68;100.00;99816.06;1671911;86;21319;-79
2021/04/15 02:58:54;;;;;;;18.27;9.20;;;;;;;7.71;100.00;99820.81;1708534;84;21180;-79
2021/04/15 03:02:06;;;;;;;22.17;8.93;;;;;;;7.73;100.00;99824.23;1697248;84;21216;-79
2021/04/15 03:05:19;;;;;;;14.55;8.48;;;;;;;7.74;100.00;99826.77;1693607;84;21298;-79
2021/04/15 03:08:27;;;;;;;18.77;8.13;;;;;;;7.76;100.00;99826.59;1671735;86;21338;-79
2021/04/15 03:11:50;;;;;;;18.12;8.08;;;;;;;7.78;100.00;99825.42;1708766;84;21276;-79
2021/04/15 03:15:05;;;;;;;18.85;7.78;;;;;;;7.81;100.00;99831.02;1671839;86;21287;-79
2021/04/15 03:18:13;;;;;;;12.78;8.15;;;;;;;7.82;100.00;99829.51;1708476;84;21848;-79
2021/04/15 03:21:52;;;;;;;17.80;8.05;;;;;;;7.84;100.00;99833.41;1670469;85;21176;-79
2021/04/15 03:24:59;;;;;;;18.23;8.60;;;;;;;7.86;100.00;99837.68;1708485;84;21189;-79
2021/04/15 03:28:24;;;;;;;15.53;7.67;;;;;;;7.88;100.00;99841.07;1671834;86;21375;-79
2021/04/15 03:31:32;;;;;;;18.60;8.68;;;;;;;7.90;100.00;99840.41;1708622;84;22126;-79
2021/04/15 03:34:49;;;;;;;22.15;8.43;;;;;;;7.94;100.00;99841.73;1698107;84;21300;-79
2021/04/15 03:38:24;;;;;;;19.62;8.85;;;;;;;7.99;100.00;99845.31;1708551;84;21833;-79
2021/04/15 03:41:36;;;;;;;14.80;8.65;;;;;;;8.06;100.00;99849.58;1698708;84;21284;-79
2021/04/15 03:44:53;;;;;;;24.07;9.05;;;;;;;8.10;100.00;99849.07;1671894;86;21307;-79
2021/04/15 03:48:02;;;;;;;21.68;8.50;;;;;;;8.14;100.00;99853.67;1693226;84;21275;-79
2021/04/15 03:51:18;;;;;;;20.23;8.25;;;;;;;8.16;100.00;99848.37;1671718;86;21818;-79
2021/04/15 03:54:26;;;;;;;21.77;8.33;;;;;;;8.18;100.00;99850.40;1708539;84;21309;-80
2021/04/15 03:57:31;;;;;;;24.92;9.65;;;;;;;8.18;99.92;99852.28;1698642;84;21310;-79
2021/04/15 04:00:48;;;;;;;14.93;7.83;;;;;;;8.19;99.83;99855.37;1671701;86;21288;-79
2021/04/15 04:03:58;;;;;;;18.10;8.08;;;;;;;8.21;99.82;99851.95;1708392;84;21335;-79
2021/04/15 04:07:06;;;;;;;17.50;8.13;;;;;;;8.22;99.71;99853.64;1667601;86;21791;-80
2021/04/15 04:10:17;;;;;;;29.20;9.60;;;;;;;8.24;99.67;99854.34;1708539;84;21318;-79
2021/04/15 04:13:39;;;;;;;25.00;9.23;;;;;;;8.26;99.64;99853.64;1671801;86;21322;-79
2021/04/15 04:16:49;;;;;;;20.80;9.28;;;;;;;8.30;99.66;99855.52;1708504;84;21726;-79
2021/04/15 04:20:01;;;;;;;16.90;8.27;;;;;;;8.31;99.59;99851.24;1699026;84;21299;-79
2021/04/15 04:23:26;;;;;;;24.82;9.75;;;;;;;8.31;99.59;99853.12;1671746;86;21240;-79
2021/04/15 04:26:51;;;;;;;23.95;8.83;;;;;;;8.30;99.68;99848.19;1707043;82;21176;-80
2021/04/15 04:30:07;;;;;;;14.70;7.42;;;;;;;8.29;99.86;99856.03;1698756;84;21370;-79
2021/04/15 04:33:13;;;;;;;21.90;8.65;;;;;;;8.31;100.00;99858.05;1698671;84;21189;-78
2021/04/15 04:36:19;;;;;;;18.52;7.95;;;;;;;8.32;100.00;99867.92;1682559;84;21172;-79
2021/04/15 04:39:23;;;;;;;17.80;7.10;;;;;;;8.28;100.00;99862.51;1671870;86;21276;-78
2021/04/15 04:42:51;;;;;;;14.13;6.87;;;;;;;8.28;100.00;99863.87;1708510;84;21172;-78
2021/04/15 04:45:57;;;;;;;12.55;5.95;;;;;;;8.30;100.00;99864.53;1671816;86;21682;-78
2021/04/15 04:49:21;;;;;;;12.88;6.60;;;;;;;8.30;100.00;99869.98;1708477;84;21334;-78
2021/04/15 04:52:32;;;;;;;13.28;6.62;;;;;;;8.31;100.00;99868.95;1698679;84;21311;-79
2021/04/15 04:55:55;;;;;;;14.13;6.22;;;;;;;8.33;100.00;99868.29;1701768;84;21167;-79
2021/04/15 04:59:08;;;;;;;11.20;6.20;;;;;;;8.34;100.00;99869.98;1701557;84;21849;-80
2021/04/15 05:02:14;;;;;;;10.28;5.85;;;;;;;8.37;100.00;99872.37;1701624;84;21840;-80
2021/04/15 05:05:36;;;;;;;10.58;5.95;;;;;;;8.38;100.00;99873.25;1701383;84;21179;-80
2021/04/15 05:08:56;;;;;;;11.68;6.12;;;;;;;8.38;100.00;99876.83;1698903;84;21203;-80
2021/04/15 05:12:00;;;;;;;8.60;5.78;;;;;;;8.38;100.00;99879.55;1701628;83;21729;-80
2021/04/15 05:15:07;;;;;;;9.90;6.05;;;;;;;8.38;100.00;99878.19;1714243;82;21147;-79
2021/04/15 05:18:15;;;;;;;11.68;6.47;;;;;;;8.39;100.00;99880.40;1705263;83;21640;-80
2021/04/15 05:21:29;;;;;;;8.95;6.62;;;;;;;8.38;100.00;99879.55;1747516;80;21167;-80
2021/04/15 05:24:37;;;;;;;10.53;6.33;;;;;;;8.40;100.00;99876.12;1745545;80;21212;-80
2021/04/15 05:27:44;;;;;;;7.08;5.22;;;;;;;8.47;100.00;99876.79;1718116;82;21836;-81
2021/04/15 05:30:57;;;;;;;9.03;5.72;;;;;;;8.57;100.00;99873.39;1741050;80;21903;-80
2021/04/15 05:34:08;;;;;;;14.18;6.00;;;;;;;8.65;100.00;99866.53;1735368;80;21909;-80
2021/04/15 05:37:16;;;;;;;11.65;6.40;;;;;;;8.75;100.00;99869.05;1711248;82;21741;-80
2021/04/15 05:40:23;;;;;;;12.73;6.37;;;;;;;8.87;100.00;99871.23;1730570;80;21311;-79
2021/04/15 05:43:43;;;;;;;10.28;6.42;;;;;;;8.94;100.00;99868.16;1742330;80;21171;-80
2021/04/15 05:46:53;;;;;;;8.03;5.90;;;;;;;9.00;100.00;99869.32;1740724;80;21211;-80
2021/04/15 05:50:07;;;;;;;8.48;6.40;;;;;;;9.01;100.00;99870.17;1740838;82;21207;-79
2021/04/15 05:53:28;;;;;;;10.38;6.03;;;;;;;8.98;100.00;99869.99;1725138;80;21148;-80
2021/04/15 05:56:36;;;;;;;8.63;5.92;;;;;;;8.92;100.00;99875.64;1743416;80;21168;-81
2021/04/15 05:59:54;;;;;;;7.58;5.45;;;;;;;8.90;100.00;99870.89;1742992;80;21308;-80
2021/04/15 06:03:32;;;;;;;10.43;5.70;;;;;;;8.90;100.00;99874.14;1747555;80;21290;-83
2021/04/15 06:06:45;;;;;;;9.80;5.28;;;;;;;8.90;100.00;99872.26;1729726;80;21278;-82
2021/04/15 06:09:52;;;;;;;13.43;5.80;;;;;;;8.90;100.00;99877.72;1740667;80;21172;-82
2021/04/15 06:13:21;;;;;;;7.20;5.35;;;;;;;8.89;100.00;99873.30;1745781;80;21176;-82
2021/04/15 06:16:39;;;;;;;7.65;5.85;;;;;;;8.91;100.00;99879.92;1700207;80;21145;-82
2021/04/15 06:19:46;;;;;;;5.30;4.10;;;;;;;8.94;100.00;99882.31;1746344;80;21294;-82
2021/04/15 06:22:55;;;;;;;8.50;4.60;;;;;;;9.02;100.00;99881.41;1744093;80;21305;-82
2021/04/15 06:26:00;;;;;;;6.10;4.47;;;;;;;9.06;99.91;99881.40;1721262;80;21271;-82
2021/04/15 06:29:15;;;;;;;5.97;4.37;;;;;;;9.10;99.58;99882.75;1746381;80;21337;-82
2021/04/15 06:32:55;;;;;;;9.40;4.87;;;;;;;9.10;99.29;99880.87;1743294;80;21588;-83
2021/04/15 06:36:08;;;;;;;9.60;6.05;;;;;;;9.06;98.94;99889.58;1741195;80;21163;-82
2021/04/15 06:39:30;;;;;;;12.73;5.30;;;;;;;8.99;98.62;99882.62;1741969;80;21326;-82
2021/04/15 06:43:31;;;;;;;8.55;4.97;;;;;;;9.02;98.73;99885.50;1744963;80;21203;-83
2021/04/15 06:47:07;;;;;;;6.78;4.55;;;;;;;9.12;99.06;99882.89;1738849;80;21183;-82
2021/04/15 06:50:27;;;;;;;9.55;4.55;;;;;;;9.25;99.17;99885.05;1738579;80;21180;-81
2021/04/15 06:54:16;;;;;;;13.38;4.90;;;;;;;9.36;98.63;99881.95;1742926;80;21144;-84
2021/04/15 06:57:55;;;;;;;8.93;5.33;;;;;;;9.44;97.97;99888.70;1741030;80;21416;-82
2021/04/15 07:01:19;;;;;;;9.65;4.60;;;;;;;9.51;97.47;99889.38;1744583;80;21243;-83
2021/04/15 07:04:59;;;;;;;12.15;4.87;;;;;;;9.50;96.81;99886.28;1741167;80;21250;-83
2021/04/15 07:08:22;;;;;;;7.65;5.50;;;;;;;9.49;96.34;99889.53;1735769;80;21880;-83
2021/04/15 07:11:50;;;;;;;15.38;5.95;;;;;;;9.45;96.14;99886.30;1740783;80;21805;-82
2021/04/15 07:15:09;;;;;;;7.87;5.42;;;;;;;9.44;96.10;99888.70;1745058;80;21734;-83
2021/04/15 07:18:56;;;;;;;15.30;5.58;;;;;;;9.38;95.80;99886.70;1742845;80;21639;-82
2021/04/15 07:22:27;;;;;;;8.73;5.30;;;;;;;9.36;95.86;99889.26;1752530;80;21797;-82
2021/04/15 07:26:07;;;;;;;9.63;5.72;;;;;;;9.35;96.17;99888.41;1685799;83;21309;-83
2021/04/15 07:29:50;;;;;;;11.22;5.87;;;;;;;9.34;96.31;99883.14;1743452;80;22350;-83
2021/04/15 07:33:50;;;;;;;9.23;4.90;;;;;;;9.32;96.39;99881.97;1744497;80;21832;-79
2021/04/15 07:37:22;;;;;;;9.25;4.47;;;;;;;9.26;96.31;99885.91;1747464;80;21864;-80
2021/04/15 07:40:45;;;;;;;8.80;4.40;;;;;;;9.25;96.81;99881.48;1753285;80;21317;-80
2021/04/15 07:44:07;;;;;;;9.43;4.08;;;;;;;9.29;97.47;99878.22;1746676;80;21797;-82
2021/04/15 07:47:36;;;;;;;6.40;4.08;;;;;;;9.31;97.74;99880.24;1745971;80;21175;-82
2021/04/15 07:51:04;;;;;;;8.43;4.05;;;;;;;9.35;97.98;99876.12;1744936;82;21232;-82
2021/04/15 07:54:18;;;;;;;8.98;4.03;;;;;;;9.39;97.89;99891.12;1743590;80;21283;-82
2021/04/15 07:58:00;;;;;;;5.03;3.62;;;;;;;9.39;97.81;99883.45;1725312;82;21307;-82
2021/04/15 08:01:35;;;;;;;5.20;3.00;;;;;;;9.37;97.65;99887.73;1717966;81;21153;-82
2021/04/15 08:05:18;;;;;;;4.05;2.45;;;;;;;9.32;97.42;99880.60;1719619;81;21774;-81
2021/04/15 08:08:56;;;;;;;5.40;2.70;;;;;;;9.29;97.45;99879.58;1718523;81;21294;-82
2021/04/15 08:12:42;;;;;;;3.25;2.67;;;;;;;9.28;97.46;99880.62;1576725;89;21903;-82
2021/04/15 08:16:04;;;;;;;5.92;2.87;;;;;;;9.32;97.52;99885.21;1606125;84;21606;-82
2021/04/15 08:19:47;;;;;;;4.40;3.37;;;;;;;9.39;97.62;99879.36;1693468;84;21252;-83
2021/04/15 08:23:19;;;;;;;3.25;2.95;;;;;;;9.45;97.76;99878.11;1725459;82;21172;-83
2021/04/15 08:27:15;;;;;;;3.45;2.95;;;;;;;9.54;97.78;99872.09;1706997;81;21212;-83
2021/04/15 08:30:38;;;;;;;4.45;3.27;;;;;;;9.65;97.93;99870.33;1704411;84;21290;-83
2021/04/15 08:34:21;;;;;;;4.35;3.47;;;;;;;9.67;97.55;99878.34;1709332;82;21793;-81
2021/04/15 08:37:56;;;;;;;5.05;3.70;;;;;;;9.57;97.08;99874.99;1718888;82;21194;-82
2021/04/15 08:41:09;;;;;;;6.60;3.92;;;;;;;9.39;96.65;99871.17;1706207;83;21180;-83
2021/04/15 08:44:33;;;;;;;6.45;4.08;;;;;;;9.26;96.95;99871.73;1706887;84;21785;-83
2021/04/15 08:48:03;;;;;;;8.18;4.65;;;;;;;9.22;97.46;99873.13;1688781;83;21192;-83
2021/04/15 08:51:21;;;;;;;5.70;4.67;;;;;;;9.18;97.85;99876.75;1708865;84;21349;-83
2021/04/15 08:55:10;;;;;;;8.07;4.20;;;;;;;9.16;98.22;99871.11;1690560;84;21161;-83
2021/04/15 08:58:50;;;;;;;6.35;4.35;;;;;;;9.17;98.62;99876.41;1696414;83;21303;-84
2021/04/15 09:02:19;;;;;;;6.65;4.37;;;;;;;9.17;98.88;99875.53;1695256;83;21160;-83
2021/04/15 09:05:53;;;;;;;8.05;4.42;;;;;;;9.14;99.00;99874.03;1730225;81;21292;-83
2021/04/15 09:09:14;;;;;;;9.50;5.55;;;;;;;9.13;99.19;99872.86;1723980;81;21316;-82
2021/04/15 09:12:52;;;;;;;8.55;5.70;;;;;;;9.14;99.40;99866.36;1724197;81;21770;-83
2021/04/15 09:16:24;;;;;;;11.33;7.17;;;;;;;9.12;99.56;99864.31;1706333;82;21283;-83
2021/04/15 09:20:11;;;;;;;10.85;6.78;;;;;;;9.16;99.85;99865.66;1709781;82;22022;-83
2021/04/15 09:23:31;;;;;;;11.10;7.15;;;;;;;9.23;100.00;99863.08;1704756;82;21263;-83
2021/04/15 09:27:18;;;;;;;10.80;6.72;;;;;;;9.28;100.00;99863.40;1703267;82;21231;-83
2021/04/15 09:30:48;;;;;;;10.82;7.65;;;;;;;9.31;100.00;99857.04;1701595;82;21144;-82
2021/04/15 09:34:34;;;;;;;16.45;7.62;;;;;;;9.33;100.00;99853.64;1709712;82;21148;-82
2021/04/15 09:38:14;;;;;;;10.58;7.60;;;;;;;9.34;100.00;99856.70;1740197;81;21170;-82
2021/04/15 09:41:42;;;;;;;11.10;7.28;;;;;;;9.40;100.00;99857.85;1707232;82;21342;-81
2021/04/15 09:45:29;;;;;;;13.62;7.58;;;;;;;9.52;100.00;99854.21;1710912;82;21903;-82
2021/04/15 09:48:51;;;;;;;13.38;7.30;;;;;;;9.63;100.00;99851.89;1705292;82;21184;-83
2021/04/15 09:52:15;;;;;;;11.88;8.35;;;;;;;9.76;100.00;99853.19;1706304;82;21854;-80
2021/04/15 09:56:03;;;;;;;12.73;7.83;;;;;;;9.88;100.00;99852.59;1704869;82;21168;-81
2021/04/15 09:59:35;;;;;;;11.83;7.63;;;;;;;10.03;100.00;99847.69;1723824;81;21575;-80
2021/04/15 10:02:50;;;;;;;8.38;5.80;;;;;;;10.18;99.56;99849.94;1605252;87;22166;-80
2021/04/15 10:06:31;;;;;;;13.53;7.92;;;;;;;10.31;99.05;99844.72;1762806;79;21176;-80
2021/04/15 10:10:04;;;;;;;10.63;7.78;;;;;;;10.45;98.44;99839.79;1763511;81;21212;-81
2021/04/15 10:13:45;;;;;;;13.70;7.33;;;;;;;10.63;97.80;99838.55;1767189;81;21196;-81
2021/04/15 10:17:22;;;;;;;10.72;7.70;;;;;;;10.85;97.31;99838.98;1767320;81;21575;-81
2021/04/15 10:20:38;;;;;;;12.00;8.05;;;;;;;11.05;96.16;99832.92;1766666;81;21856;-81
2021/04/15 10:24:07;;;;;;;13.83;8.28;;;;;;;11.10;94.70;99840.88;1765065;81;21848;-79
2021/04/15 10:27:53;;;;;;;15.78;8.68;;;;;;;10.97;92.72;99845.69;1763843;79;21175;-79
2021/04/15 10:31:29;;;;;;;13.98;7.72;;;;;;;10.78;92.53;99842.69;1766387;80;21195;-80
2021/04/15 10:35:23;;;;;;;16.35;8.43;;;;;;;10.57;93.05;99848.88;1762793;79;21136;-79
2021/04/15 10:38:56;;;;;;;14.63;7.50;;;;;;;10.45;93.62;99845.26;1744313;79;21168;-79
2021/04/15 10:42:30;;;;;;;11.95;6.25;;;;;;;10.41;93.53;99848.03;1764372;79;21274;-79
2021/04/15 10:45:59;;;;;;;11.70;5.20;;;;;;;10.40;92.74;99840.87;1737319;79;21176;-79
2021/04/15 10:49:42;;;;;;;5.00;4.17;;;;;;;10.46;91.33;99842.84;1765936;80;21717;-79
2021/04/15 10:53:04;;;;;;;6.12;4.30;;;;;;;10.54;89.69;99846.52;1765989;79;21215;-79
2021/04/15 10:56:20;;;;;;;10.00;5.33;;;;;;;10.53;88.33;99835.25;1765822;79;21729;-80
2021/04/15 10:59:45;;;;;;;9.43;5.75;;;;;;;10.47;88.45;99836.86;1769194;79;21660;-80
2021/04/15 11:02:56;;;;;;;9.98;6.80;;;;;;;10.45;89.14;99834.84;1720838;83;21267;-80
2021/04/15 11:06:03;;;;;;;11.15;6.72;;;;;;;10.48;89.67;99837.18;1701758;83;21171;-81
2021/04/15 11:09:35;;;;;;;14.25;7.12;;;;;;;10.54;90.36;99834.21;1719409;82;21584;-81
2021/04/15 11:12:42;;;;;;;11.05;7.28;;;;;;;10.58;91.25;99832.80;1715484;82;21175;-81
2021/04/15 11:15:52;;;;;;;13.25;7.45;;;;;;;10.65;92.14;99829.66;1721904;83;21179;-81
2021/04/15 11:18:57;;;;;;;;;;;;;;;10.73;92.25;99826.84;1724940;83;21167;-81
2021/04/15 11:22:09;;;;;;;11.15;5.85;;;;;;;10.85;91.83;99826.67;1711110;82;20267;-81
2021/04/15 11:25:43;;;;;;;11.63;6.50;;;;;;;10.94;91.07;99826.05;1718088;82;21297;-81
2021/04/15 11:28:58;;;;;;;9.70;6.28;;;;;;;11.08;89.63;99827.92;1693549;83;21191;-81
2021/04/15 11:32:04;;;;;;;8.43;5.37;;;;;;;11.23;88.70;99830.10;1722843;82;21325;-81
2021/04/15 11:35:26;;;;;;;8.78;6.17;;;;;;;11.33;87.86;99827.05;1702448;82;21175;-79
2021/04/15 11:38:32;;;;;;;12.78;6.85;;;;;;;11.43;87.57;99822.14;1719412;82;21325;-81
2021/04/15 11:41:36;;;;;;;8.48;6.20;;;;;;;11.57;87.19;99817.63;1719459;83;22062;-81
2021/04/15 11:44:53;;;;;;;9.80;6.47;;;;;;;11.70;86.74;99811.44;1721366;83;21757;-82
2021/04/15 11:47:57;;;;;;;10.25;6.53;;;;;;;11.81;86.40;99806.83;1698268;83;21321;-82
2021/04/15 11:51:26;;;;;;;9.53;6.85;;;;;;;11.80;85.00;99810.59;1729132;82;21255;-82
2021/04/15 11:54:42;;;;;;;8.43;6.07;;;;;;;11.67;84.46;99809.96;1705340;82;21824;-82
2021/04/15 11:57:53;;;;;;;7.33;5.58;;;;;;;11.44;84.17;99816.98;1716111;83;21235;-83
2021/04/15 12:01:06;;;;;;;9.88;6.25;;;;;;;11.24;84.22;99813.16;1715788;82;21534;-80
2021/04/15 12:04:13;;;;;;;10.50;7.30;;;;;;;11.07;84.99;99817.17;1714785;82;21716;-81
2021/04/15 12:07:31;;;;;;;10.05;6.20;;;;;;;10.91;86.39;99811.37;1710299;83;21302;-82
2021/04/15 12:10:42;;;;;;;8.30;5.87;;;;;;;10.79;86.28;99808.81;1708802;82;21923;-82
2021/04/15 12:14:16;;;;;;;11.60;6.58;;;;;;;10.70;85.03;99803.95;1716044;83;21301;-83
2021/04/15 12:17:57;;;;;;;12.82;7.28;;;;;;;10.61;84.32;99807.83;1714092;83;21291;-81
2021/04/15 12:21:13;;;;;;;10.60;7.30;;;;;;;10.46;84.32;99804.56;1716363;83;21877;-79
2021/04/15 12:24:23;;;;;;;9.70;7.42;;;;;;;10.33;85.09;99805.73;1710864;83;21943;-81
2021/04/15 12:27:37;;;;;;;11.57;7.47;;;;;;;10.29;86.13;99798.09;1719188;83;21192;-81
2021/04/15 12:30:43;;;;;;;11.88;7.75;;;;;;;10.31;86.96;99794.15;1709191;84;21623;-82
2021/04/15 12:33:54;;;;;;;13.43;7.67;;;;;;;10.39;87.59;99795.41;1704614;84;21925;-80
2021/04/15 12:37:18;;;;;;;10.95;6.35;;;;;;;10.51;88.01;99792.22;1718449;82;21268;-81
2021/04/15 12:40:37;;;;;;;10.30;6.58;;;;;;;10.69;87.37;99789.95;1717396;82;21267;-82
2021/04/15 12:43:55;;;;;;;11.65;6.03;;;;;;;10.90;86.52;99794.64;1708154;82;21319;-82
2021/04/15 12:47:02;;;;;;;8.75;5.92;;;;;;;11.05;85.44;99794.61;1705591;82;21801;-82
2021/04/15 12:50:07;;;;;;;9.30;6.00;;;;;;;11.12;84.83;99794.18;1706847;82;21723;-81
2021/04/15 12:53:14;;;;;;;13.75;6.60;;;;;;;11.18;84.32;99799.72;1706869;82;21267;-80
2021/04/15 12:56:24;;;;;;;11.97;6.33;;;;;;;11.26;84.31;99792.77;1704174;83;21323;-81
2021/04/15 12:59:33;;;;;;;;;;;;;;;11.33;83.95;99794.72;1707657;82;21140;-82
2021/04/15 13:02:40;;;;;;;15.58;8.10;;;;;;;11.36;83.83;99796.56;1716085;83;20712;-82
2021/04/15 13:05:51;;;;;;;15.18;6.30;;;;;;;11.41;83.81;99792.72;1722002;83;21164;-81
2021/04/15 13:09:01;;;;;;;8.93;5.33;;;;;;;11.55;83.89;99785.48;1719554;83;21195;-82
2021/04/15 13:12:09;;;;;;;12.82;5.70;;;;;;;11.67;83.43;99785.83;1725428;81;21278;-82
2021/04/15 13:15:34;;;;;;;25.08;9.55;;;;;;;11.75;82.85;99785.67;1721572;82;21169;-82
2021/04/15 13:18:44;;;;;;;13.18;8.90;;;;;;;11.85;81.98;99785.37;1721697;83;21140;-82
2021/04/15 13:22:11;;;;;;;12.88;6.25;;;;;;;11.89;79.70;99792.16;1723185;81;21207;-80
2021/04/15 13:25:26;;;;;;;14.83;6.15;;;;;;;11.81;78.78;99790.88;1716584;83;21682;-81
2021/04/15 13:29:00;;;;;;;15.60;7.42;;;;;;;11.75;79.11;99795.27;1721412;83;21274;-82
2021/04/15 13:32:06;;;;;;;14.38;7.85;;;;;;;11.64;78.83;99802.13;1722260;83;21860;-80
2021/04/15 13:35:18;;;;;;;18.77;9.73;;;;;;;11.60;78.62;99797.23;1685094;83;21828;-82
2021/04/15 13:42:06;;;;;;;20.32;7.17;;;;;;;11.65;77.26;99798.86;1722427;83;21257;-82
2021/04/15 13:45:17;;;;;;;17.15;7.30;;;;;;;11.73;77.07;99794.63;1723674;82;22119;-80
2021/04/15 13:48:50;;;;;;;18.10;7.27;;;;;;;11.83;76.83;99794.32;1724824;83;21847;-80
2021/04/15 13:52:17;;;;;;;15.38;6.75;;;;;;;11.90;75.81;99802.06;1724503;83;21200;-82
2021/04/15 13:55:56;;;;;;;9.85;4.35;;;;;;;11.82;75.17;99804.44;1724229;83;21302;-83
2021/04/15 13:59:01;;;;;;;7.95;3.10;;;;;;;11.71;75.43;99806.28;1702475;83;21612;-81
2021/04/15 14:02:29;;;;;;;6.22;3.10;;;;;;;11.56;74.49;99811.83;1723309;83;21553;-80
2021/04/15 14:05:42;;;;;;;5.12;3.05;;;;;;;11.47;74.23;99809.73;1724737;83;21741;-82
2021/04/15 14:09:19;;;;;;;7.35;3.50;;;;;;;11.46;74.44;99813.52;1703440;83;21219;-82
2021/04/15 14:13:04;;;;;;;11.95;3.77;;;;;;;11.47;74.36;99812.99;1722852;81;21729;-81
2021/04/15 14:16:10;;;;;;;9.10;3.75;;;;;;;11.50;74.85;99807.98;1700935;83;21808;-81
2021/04/15 14:19:27;;;;;;;5.75;3.55;;;;;;;11.60;75.45;99807.66;1702726;83;21923;-81
2021/04/15 14:22:34;;;;;;;10.15;3.77;;;;;;;11.70;75.11;99798.59;1723734;82;21246;-80
2021/04/15 14:25:43;;;;;;;6.58;3.58;;;;;;;11.77;74.90;99800.88;1725208;83;21259;-82
2021/04/15 14:28:49;;;;;;;5.65;3.83;;;;;;;11.77;74.36;99800.05;1703368;83;21313;-81
2021/04/15 14:31:57;;;;;;;6.85;3.80;;;;;;;11.67;74.11;99805.00;1725131;83;21310;-82
2021/04/15 14:35:24;;;;;;;6.43;4.23;;;;;;;11.57;74.07;99809.93;1725262;83;21299;-81
2021/04/15 14:38:45;;;;;;;9.65;5.70;;;;;;;11.44;73.78;99818.35;1707947;83;21301;-82
2021/04/15 14:41:54;;;;;;;11.90;5.03;;;;;;;11.30;74.03;99816.52;1702104;83;21729;-82
2021/04/15 14:45:22;;;;;;;9.50;5.17;;;;;;;11.10;74.44;99818.98;1695738;84;21282;-80
2021/04/15 14:48:40;;;;;;;6.03;4.30;;;;;;;10.94;75.37;99826.90;1692459;83;21352;-80
2021/04/15 14:51:46;;;;;;;8.68;3.95;;;;;;;10.83;75.83;99820.55;1695486;84;21207;-80
2021/04/15 14:54:57;;;;;;;11.63;5.75;;;;;;;10.67;75.53;99821.58;1695634;84;21270;-80
2021/04/15 14:58:10;;;;;;;12.75;6.17;;;;;;;10.55;75.62;99814.05;1720485;83;21742;-82
2021/04/15 15:01:35;;;;;;;17.98;6.95;;;;;;;10.47;75.91;99820.45;1724761;83;21171;-81
2021/04/15 15:04:41;;;;;;;29.48;8.63;;;;;;;10.40;76.10;99812.16;1724111;83;21282;-80
2021/04/15 15:07:48;;;;;;;19.27;7.75;;;;;;;10.39;76.72;99815.06;1724513;83;21347;-81
2021/04/15 15:10:53;;;;;;;12.37;5.90;;;;;;;10.37;76.75;99810.31;1725191;83;21274;-80
2021/04/15 15:14:01;;;;;;;16.32;5.58;;;;;;;10.36;76.80;99820.92;1725180;83;21235;-82
2021/04/15 15:17:07;;;;;;;19.92;7.30;;;;;;;10.33;76.91;99818.55;1723805;81;21203;-81
2021/04/15 15:20:37;;;;;;;13.13;5.20;;;;;;;10.26;76.91;99814.36;1725201;83;21179;-80
2021/04/15 15:23:43;;;;;;;11.25;4.08;;;;;;;10.21;76.96;99822.23;1725119;83;21843;-81
2021/04/15 15:26:58;;;;;;;12.60;3.75;;;;;;;10.13;76.60;99823.68;1725140;83;21938;-80
2021/04/15 15:30:14;;;;;;;11.12;3.62;;;;;;;10.04;76.07;99827.52;1723707;83;21172;-80
2021/04/15 15:33:28;;;;;;;6.80;3.10;;;;;;;9.96;76.09;99828.43;1722204;80;21309;-82
2021/04/15 15:36:36;;;;;;;20.35;5.03;;;;;;;9.90;76.47;99822.34;1725187;83;21176;-81